Time;durP1;ratioP1;P1;durP2;ratioP2;P2;SDS_P1;SDS_P2;PMS_P1;PMS_P2;Temp;Humidity;BMP_temperature;BMP_pressure;BME280_temperature;BME280_humidity;BME280_pressure;Samples;Min_cycle;Max_cycle;Signal;HPM_P1;HPM_P2
2024/01/13 00:02:20;;;;;;;41.63;20.67;;;2.10;99.90;;;;;;5048766;28;20237;-70
2024/01/13 00:04:46;;;;;;;43.00;21.07;;;2.10;99.90;;;;;;5044429;28;20233;-70
2024/01/13 00:07:13;;;;;;;36.90;19.60;;;2.10;99.90;;;;;;5040521;28;20194;-69
2024/01/13 00:09:38;;;;;;;36.77;18.67;;;2.10;99.90;;;;;;5040410;28;20749;-69
2024/01/13 00:12:05;;;;;;;36.20;19.13;;;2.10;99.90;;;;;;5040845;28;20506;-67
2024/01/13 00:14:30;;;;;;;37.90;20.50;;;2.10;99.90;;;;;;5041653;28;20671;-70
2024/01/13 00:16:56;;;;;;;37.63;20.80;;;2.10;99.90;;;;;;5039922;28;20468;-70
2024/01/13 00:19:23;;;;;;;32.37;18.57;;;2.10;99.90;;;;;;5041168;28;20190;-73
2024/01/13 00:21:48;;;;;;;38.90;18.67;;;2.10;99.90;;;;;;5043178;28;20222;-68
2024/01/13 00:24:14;;;;;;;56.87;22.77;;;2.10;99.90;;;;;;5039672;28;20421;-68
2024/01/13 00:26:40;;;;;;;44.77;22.37;;;2.10;99.90;;;;;;5042389;28;20202;-71
2024/01/13 00:29:06;;;;;;;46.27;21.87;;;2.10;99.90;;;;;;5045132;28;20261;-69
2024/01/13 00:31:31;;;;;;;41.83;21.67;;;2.10;99.90;;;;;;5041281;28;20297;-70
2024/01/13 00:33:57;;;;;;;38.13;19.70;;;2.10;99.90;;;;;;5040031;28;20449;-69
2024/01/13 00:36:23;;;;;;;34.90;19.37;;;2.10;99.90;;;;;;5039878;28;20210;-69
2024/01/13 00:38:50;;;;;;;33.77;19.30;;;2.10;99.90;;;;;;5037776;28;20201;-68
2024/01/13 00:41:15;;;;;;;35.00;19.23;;;2.10;99.90;;;;;;5040427;28;20222;-68
2024/01/13 00:43:41;;;;;;;38.03;19.10;;;2.10;99.90;;;;;;5040373;28;20435;-70
2024/01/13 00:46:07;;;;;;;36.37;20.10;;;2.10;99.90;;;;;;5057221;28;20225;-70
2024/01/13 00:48:35;;;;;;;36.70;20.27;;;2.10;99.90;;;;;;5040081;28;20217;-69
2024/01/13 00:51:01;;;;;;;40.40;19.03;;;2.10;99.90;;;;;;5039971;28;20955;-69
2024/01/13 00:53:27;;;;;;;33.53;17.50;;;2.10;99.90;;;;;;5039089;28;20469;-68
2024/01/13 00:55:53;;;;;;;34.50;16.93;;;2.10;99.90;;;;;;5040522;28;20501;-69
2024/01/13 00:58:18;;;;;;;36.43;18.80;;;2.10;99.90;;;;;;5039794;28;20265;-69
2024/01/13 01:00:44;;;;;;;43.83;20.07;;;2.10;99.90;;;;;;5040846;28;20582;-71
2024/01/13 01:03:10;;;;;;;41.37;21.97;;;2.10;99.90;;;;;;5039843;28;20233;-69
2024/01/13 01:05:36;;;;;;;37.33;19.80;;;2.10;99.90;;;;;;5038234;28;20294;-70
2024/01/13 01:08:01;;;;;;;44.20;20.40;;;2.10;99.90;;;;;;5037178;28;20319;-70
2024/01/13 01:10:27;;;;;;;41.23;22.80;;;2.10;99.90;;;;;;5037536;28;20425;-68
2024/01/13 01:12:53;;;;;;;41.03;19.80;;;2.10;99.90;;;;;;5038082;28;20218;-67
2024/01/13 01:15:18;;;;;;;33.00;16.70;;;2.10;99.90;;;;;;5054769;28;20511;-71
2024/01/13 01:17:44;;;;;;;36.17;18.23;;;2.10;99.90;;;;;;5038048;28;20478;-69
2024/01/13 01:20:11;;;;;;;32.50;16.93;;;2.10;99.90;;;;;;5039352;28;20638;-70
2024/01/13 01:22:36;;;;;;;32.73;16.63;;;2.10;99.90;;;;;;5039854;28;20183;-68
2024/01/13 01:25:02;;;;;;;35.33;16.97;;;2.10;99.90;;;;;;5039116;28;20423;-69
2024/01/13 01:27:29;;;;;;;29.40;16.60;;;2.10;99.90;;;;;;5038190;28;20190;-68
2024/01/13 01:29:55;;;;;;;33.50;16.80;;;2.10;99.90;;;;;;5038195;28;20443;-68
2024/01/13 01:32:21;;;;;;;35.13;18.37;;;2.10;99.90;;;;;;5038835;28;20460;-69
2024/01/13 01:34:47;;;;;;;46.67;23.23;;;2.10;99.90;;;;;;5039388;28;20397;-68
2024/01/13 01:37:12;;;;;;;39.07;20.30;;;2.10;99.90;;;;;;5037756;28;20167;-68
2024/01/13 01:39:38;;;;;;;43.70;21.00;;;2.10;99.90;;;;;;5041794;28;20245;-69
2024/01/13 01:42:04;;;;;;;39.13;20.20;;;2.10;99.90;;;;;;5042374;28;20222;-69
2024/01/13 01:44:30;;;;;;;46.00;22.93;;;2.10;99.90;;;;;;5041286;28;20198;-69
2024/01/13 01:46:59;;;;;;;44.93;21.53;;;2.10;99.90;;;;;;5041413;28;20524;-69
2024/01/13 01:49:25;;;;;;;44.70;24.93;;;2.10;99.90;;;;;;5042240;28;20194;-70
2024/01/13 01:51:51;;;;;;;45.60;24.47;;;2.10;99.90;;;;;;5041905;28;20432;-68
2024/01/13 01:54:17;;;;;;;38.40;21.60;;;2.10;99.90;;;;;;5042839;28;20421;-68
2024/01/13 01:56:43;;;;;;;39.40;21.33;;;2.10;99.90;;;;;;5040286;28;20217;-67
2024/01/13 01:59:09;;;;;;;44.17;22.93;;;2.10;99.90;;;;;;5041999;28;20437;-69
2024/01/13 02:01:36;;;;;;;51.40;23.47;;;2.10;99.90;;;;;;5041930;28;20413;-68
2024/01/13 02:04:03;;;;;;;37.83;20.23;;;2.10;99.90;;;;;;5042473;28;20425;-68
2024/01/13 02:06:30;;;;;;;42.03;21.70;;;2.10;99.90;;;;;;5044760;28;20478;-68
2024/01/13 02:08:56;;;;;;;47.30;24.80;;;2.10;99.90;;;;;;5041702;28;20504;-68
2024/01/13 02:11:21;;;;;;;46.30;21.30;;;2.10;99.90;;;;;;5042279;28;20432;-68
2024/01/13 02:13:48;;;;;;;37.20;21.80;;;2.10;99.90;;;;;;5042645;28;20456;-70
2024/01/13 02:16:15;;;;;;;42.57;21.93;;;2.10;99.90;;;;;;5042880;28;20213;-69
2024/01/13 02:18:41;;;;;;;38.33;19.70;;;2.20;99.90;;;;;;5043515;28;21007;-69
2024/01/13 02:21:06;;;;;;;42.90;21.60;;;2.10;99.90;;;;;;5043088;28;20424;-68
2024/01/13 02:23:33;;;;;;;53.37;23.70;;;2.10;99.90;;;;;;5042266;28;20668;-67
2024/01/13 02:25:58;;;;;;;43.57;23.60;;;2.10;99.90;;;;;;5042979;28;20341;-67
2024/01/13 02:28:24;;;;;;;43.40;21.90;;;2.10;99.90;;;;;;5043887;28;20706;-67
2024/01/13 02:30:50;;;;;;;36.37;19.23;;;2.20;99.90;;;;;;5042976;28;20428;-69
2024/01/13 02:33:16;;;;;;;37.23;19.03;;;2.20;99.90;;;;;;5040912;28;20210;-69
2024/01/13 02:35:42;;;;;;;32.80;19.07;;;2.20;99.90;;;;;;5040804;28;20228;-67
2024/01/13 02:38:07;;;;;;;36.23;16.90;;;2.20;99.90;;;;;;5041054;28;20205;-68
2024/01/13 02:40:34;;;;;;;38.80;20.03;;;2.20;99.90;;;;;;5041347;28;20171;-69
2024/01/13 02:42:59;;;;;;;32.63;18.07;;;2.20;99.90;;;;;;5040981;28;20653;-67
2024/01/13 02:45:25;;;;;;;33.67;16.33;;;2.20;99.90;;;;;;5042807;28;20471;-70
2024/01/13 02:48:18;;;;;;;33.00;17.73;;;2.20;99.90;;;;;;5057856;28;20193;-68
2024/01/13 02:50:53;;;;;;;34.60;17.23;;;2.20;99.90;;;;;;5040153;28;20233;-69
2024/01/13 02:53:19;;;;;;;28.50;16.53;;;2.20;99.90;;;;;;5043896;28;20456;-68
2024/01/13 02:55:45;;;;;;;29.50;16.13;;;2.20;99.90;;;;;;5040254;28;20833;-68
2024/01/13 02:58:10;;;;;;;27.40;16.80;;;2.30;99.90;;;;;;5042775;28;20246;-69
2024/01/13 03:00:36;;;;;;;26.10;15.30;;;2.30;99.90;;;;;;5044434;28;20187;-69
2024/01/13 03:03:02;;;;;;;34.90;16.43;;;2.30;99.90;;;;;;5042478;28;20252;-68
2024/01/13 03:05:27;;;;;;;36.00;20.30;;;2.30;99.90;;;;;;5052596;28;20202;-67
2024/01/13 03:07:53;;;;;;;33.13;17.37;;;2.30;99.90;;;;;;5040766;28;20439;-67
2024/01/13 03:10:18;;;;;;;33.13;17.20;;;2.30;99.90;;;;;;5039853;28;20456;-68
2024/01/13 03:12:44;;;;;;;30.50;15.17;;;2.30;99.90;;;;;;5039944;28;20210;-67
2024/01/13 03:15:10;;;;;;;25.47;15.40;;;2.30;99.90;;;;;;5039990;28;20190;-67
2024/01/13 03:17:36;;;;;;;32.37;17.20;;;2.30;99.90;;;;;;5037265;28;20222;-68
2024/01/13 03:20:03;;;;;;;30.40;16.10;;;2.30;99.90;;;;;;5039311;28;20854;-68
2024/01/13 03:22:29;;;;;;;35.73;18.07;;;2.30;99.90;;;;;;5039883;28;20425;-70
2024/01/13 03:24:56;;;;;;;30.47;16.10;;;2.30;99.90;;;;;;5039960;28;20433;-69
2024/01/13 03:27:22;;;;;;;34.43;18.47;;;2.30;99.90;;;;;;5040363;28;20290;-69
2024/01/13 03:29:47;;;;;;;31.63;18.10;;;2.30;99.90;;;;;;5041670;28;20421;-67
2024/01/13 03:32:13;;;;;;;24.50;15.93;;;2.30;99.90;;;;;;5040290;28;20448;-69
2024/01/13 03:34:39;;;;;;;28.37;17.00;;;2.30;99.90;;;;;;5039598;28;20475;-70
2024/01/13 03:37:04;;;;;;;26.20;14.80;;;2.30;99.90;;;;;;5040490;28;20206;-68
2024/01/13 03:39:30;;;;;;;28.33;15.10;;;2.30;99.90;;;;;;5040488;28;20544;-68
2024/01/13 03:41:55;;;;;;;28.63;15.73;;;2.30;99.90;;;;;;5055204;28;20253;-68
2024/01/13 03:44:21;;;;;;;25.47;14.83;;;2.30;99.90;;;;;;5054612;28;20583;-70
2024/01/13 03:46:47;;;;;;;28.30;16.10;;;2.30;99.90;;;;;;5040879;28;20502;-68
2024/01/13 03:49:12;;;;;;;30.00;16.10;;;2.30;99.90;;;;;;5041327;28;20212;-67
2024/01/13 03:51:38;;;;;;;25.93;15.03;;;2.30;99.90;;;;;;5039095;28;20186;-68
2024/01/13 03:54:03;;;;;;;24.20;12.63;;;2.30;99.90;;;;;;5040916;28;20268;-68
2024/01/13 03:56:30;;;;;;;26.37;12.50;;;2.30;99.90;;;;;;5038596;28;20606;-69
2024/01/13 03:58:55;;;;;;;30.33;16.27;;;2.30;99.90;;;;;;5038551;28;20522;-69
2024/01/13 04:01:21;;;;;;;28.20;15.80;;;2.30;99.90;;;;;;5038475;28;20409;-68
2024/01/13 04:03:47;;;;;;;26.63;15.37;;;2.30;99.90;;;;;;5037502;28;20261;-68
2024/01/13 04:06:12;;;;;;;27.60;14.63;;;2.40;99.90;;;;;;5040410;28;20218;-70
2024/01/13 04:08:38;;;;;;;28.17;15.10;;;2.30;99.90;;;;;;5042517;28;20216;-67
2024/01/13 04:11:10;;;;;;;29.17;16.33;;;2.30;99.90;;;;;;5038672;28;20233;-65
2024/01/13 04:13:36;;;;;;;31.07;17.93;;;2.30;99.90;;;;;;5037767;28;20472;-69
2024/01/13 04:16:02;;;;;;;27.17;16.17;;;2.30;99.90;;;;;;5037774;28;20445;-67
2024/01/13 04:18:28;;;;;;;28.67;15.00;;;2.30;99.90;;;;;;5037056;28;20278;-68
2024/01/13 04:20:54;;;;;;;29.90;17.50;;;2.30;99.90;;;;;;5037652;28;20468;-68
2024/01/13 04:23:19;;;;;;;29.37;16.40;;;2.30;99.90;;;;;;5037102;28;20225;-68
2024/01/13 04:25:45;;;;;;;24.43;14.80;;;2.30;99.90;;;;;;5038802;28;20199;-67
2024/01/13 04:28:11;;;;;;;33.17;16.60;;;2.40;99.90;;;;;;5039740;28;20197;-67
2024/01/13 04:30:36;;;;;;;28.10;14.70;;;2.40;99.90;;;;;;5036996;28;20190;-67
2024/01/13 04:33:02;;;;;;;26.30;14.13;;;2.40;99.90;;;;;;5037191;28;20475;-68
2024/01/13 04:35:28;;;;;;;22.70;13.53;;;2.40;99.90;;;;;;5037527;28;20237;-68
2024/01/13 04:37:55;;;;;;;28.77;14.90;;;2.30;99.90;;;;;;5038206;28;20762;-69
2024/01/13 04:40:20;;;;;;;37.03;19.30;;;2.30;99.90;;;;;;5053098;28;20431;-69
2024/01/13 04:42:46;;;;;;;32.23;16.70;;;2.30;99.90;;;;;;5037085;28;20548;-67
2024/01/13 04:45:12;;;;;;;28.20;14.80;;;2.30;99.90;;;;;;5037217;28;20197;-67
2024/01/13 04:47:37;;;;;;;27.67;14.73;;;2.30;99.90;;;;;;5036164;28;20265;-67
2024/01/13 04:50:03;;;;;;;28.30;15.50;;;2.30;99.90;;;;;;5036566;28;20232;-68
2024/01/13 04:52:29;;;;;;;26.50;14.60;;;2.30;99.90;;;;;;5037211;28;20218;-68
2024/01/13 04:54:54;;;;;;;23.03;13.33;;;2.30;99.90;;;;;;5038670;28;20425;-67
2024/01/13 04:57:21;;;;;;;32.83;15.00;;;2.30;99.90;;;;;;5038614;28;20431;-68
2024/01/13 04:59:47;;;;;;;25.30;14.70;;;2.40;99.90;;;;;;5034290;28;20198;-66
2024/01/13 05:02:13;;;;;;;25.20;13.00;;;2.40;99.90;;;;;;5040284;28;20656;-67
2024/01/13 05:04:39;;;;;;;26.10;13.97;;;2.40;99.90;;;;;;5043777;28;20854;-67
2024/01/13 05:07:09;;;;;;;33.33;15.23;;;2.40;99.90;;;;;;5037035;28;20276;-68
2024/01/13 05:09:35;;;;;;;24.17;14.53;;;2.40;99.90;;;;;;5037354;28;20421;-68
2024/01/13 05:12:01;;;;;;;21.73;13.20;;;2.40;99.90;;;;;;5037186;28;20413;-67
2024/01/13 05:14:26;;;;;;;24.77;14.17;;;2.40;99.90;;;;;;5037023;28;20257;-67
2024/01/13 05:16:52;;;;;;;29.90;14.60;;;2.40;99.90;;;;;;5035896;28;20749;-68
2024/01/13 05:19:18;;;;;;;27.17;15.83;;;2.40;99.90;;;;;;5035738;28;20265;-68
2024/01/13 05:21:43;;;;;;;29.63;17.07;;;2.40;99.90;;;;;;5037335;28;20170;-67
2024/01/13 05:24:10;;;;;;;28.77;15.10;;;2.40;99.90;;;;;;5037114;28;20508;-68
2024/01/13 05:26:37;;;;;;;32.80;15.77;;;2.40;99.90;;;;;;5037513;28;20206;-67
2024/01/13 05:29:03;;;;;;;26.67;14.80;;;2.40;99.90;;;;;;5037556;28;20703;-68
2024/01/13 05:31:29;;;;;;;25.97;15.30;;;2.40;99.90;;;;;;5036569;28;20401;-67
2024/01/13 05:33:55;;;;;;;26.10;13.63;;;2.40;99.90;;;;;;5036368;28;20286;-67
2024/01/13 05:36:21;;;;;;;28.73;14.50;;;2.40;99.90;;;;;;5036720;28;20210;-67
2024/01/13 05:38:47;;;;;;;26.40;14.40;;;2.40;99.90;;;;;;5036524;28;20846;-69
2024/01/13 05:41:13;;;;;;;26.70;15.33;;;2.40;99.90;;;;;;5036209;28;20450;-68
2024/01/13 05:43:38;;;;;;;23.00;13.63;;;2.40;99.90;;;;;;5037167;28;20248;-69
2024/01/13 05:46:04;;;;;;;24.70;14.20;;;2.40;99.90;;;;;;5036387;28;20209;-69
2024/01/13 05:48:29;;;;;;;29.70;19.03;;;2.40;99.90;;;;;;5035857;28;20216;-67
2024/01/13 05:50:55;;;;;;;32.83;18.27;;;2.40;99.90;;;;;;5035760;28;20244;-68
2024/01/13 05:53:21;;;;;;;30.60;15.00;;;2.30;99.90;;;;;;5036100;28;20214;-70
2024/01/13 05:55:46;;;;;;;24.23;14.70;;;2.30;99.90;;;;;;5038272;28;20210;-67
2024/01/13 05:58:12;;;;;;;25.80;16.20;;;2.30;99.90;;;;;;5038202;28;20235;-68
2024/01/13 06:00:37;;;;;;;27.43;15.10;;;2.30;99.90;;;;;;5036404;28;20201;-68
2024/01/13 06:03:03;;;;;;;33.80;19.03;;;2.30;99.90;;;;;;5036706;28;20198;-67
2024/01/13 06:05:31;;;;;;;27.20;14.53;;;2.40;99.90;;;;;;5041981;28;20206;-67
2024/01/13 06:07:57;;;;;;;32.50;16.47;;;2.30;99.90;;;;;;5043854;28;20233;-68
2024/01/13 06:10:22;;;;;;;31.77;15.70;;;2.30;99.90;;;;;;5036567;28;20414;-67
2024/01/13 06:12:48;;;;;;;26.23;14.27;;;2.30;99.90;;;;;;5035712;28;20559;-68
2024/01/13 06:15:14;;;;;;;29.40;15.30;;;2.30;99.90;;;;;;5035775;28;20214;-68
2024/01/13 06:17:39;;;;;;;24.60;14.50;;;2.30;99.90;;;;;;5035875;28;20232;-69
2024/01/13 06:20:06;;;;;;;26.97;14.37;;;2.40;99.90;;;;;;5035538;28;20187;-67
2024/01/13 06:22:32;;;;;;;26.73;14.40;;;2.40;99.90;;;;;;5035888;28;20198;-67
2024/01/13 06:24:57;;;;;;;20.63;12.10;;;2.40;99.90;;;;;;5039164;28;20451;-67
2024/01/13 06:27:23;;;;;;;22.47;13.63;;;2.30;99.90;;;;;;5038985;28;20212;-69
2024/01/13 06:29:49;;;;;;;21.67;12.00;;;2.40;99.90;;;;;;5036807;28;20268;-69
2024/01/13 06:32:14;;;;;;;23.30;13.47;;;2.40;99.90;;;;;;5035410;28;20603;-68
2024/01/13 06:34:40;;;;;;;20.57;13.17;;;2.40;99.90;;;;;;5035860;28;20226;-68
2024/01/13 06:37:05;;;;;;;23.80;14.10;;;2.40;99.90;;;;;;5036084;28;20202;-67
2024/01/13 06:39:31;;;;;;;26.43;14.10;;;2.40;99.90;;;;;;5035932;28;20208;-67
2024/01/13 06:41:58;;;;;;;20.83;12.77;;;2.40;99.90;;;;;;5036905;28;20233;-68
2024/01/13 06:44:24;;;;;;;23.13;12.83;;;2.40;99.90;;;;;;5037360;28;20243;-68
2024/01/13 06:46:49;;;;;;;19.60;14.00;;;2.40;99.90;;;;;;5036792;28;20504;-66
2024/01/13 06:49:15;;;;;;;22.93;14.20;;;2.40;99.90;;;;;;5035986;28;20474;-69
2024/01/13 06:51:41;;;;;;;25.23;15.40;;;2.40;99.90;;;;;;5037447;28;20194;-68
2024/01/13 06:54:07;;;;;;;25.67;14.37;;;2.40;99.90;;;;;;5040203;28;20214;-68
2024/01/13 06:56:33;;;;;;;26.37;15.13;;;2.40;99.90;;;;;;5041436;28;20459;-68
2024/01/13 06:58:58;;;;;;;25.30;15.80;;;2.40;99.90;;;;;;5040273;28;20193;-68
2024/01/13 07:01:24;;;;;;;28.63;15.13;;;2.50;99.90;;;;;;5040940;28;20293;-67
2024/01/13 07:03:52;;;;;;;24.87;15.27;;;2.50;99.90;;;;;;5039471;28;20498;-68
2024/01/13 07:06:17;;;;;;;25.73;15.00;;;2.50;99.90;;;;;;5042846;28;20209;-68
2024/01/13 07:08:43;;;;;;;26.70;16.60;;;2.50;99.90;;;;;;5040562;28;20422;-67
2024/01/13 07:11:13;;;;;;;29.60;14.77;;;2.40;99.90;;;;;;5040767;28;20202;-68
2024/01/13 07:13:44;;;;;;;28.17;13.27;;;2.50;99.90;;;;;;5050609;28;20229;-68
2024/01/13 07:16:11;;;;;;;24.33;14.30;;;2.50;99.90;;;;;;5055126;28;20445;-69
2024/01/13 07:18:37;;;;;;;24.90;14.50;;;2.50;99.90;;;;;;5038654;28;20499;-68
2024/01/13 07:21:03;;;;;;;24.37;13.60;;;2.50;99.90;;;;;;5039446;28;20417;-67
2024/01/13 07:23:29;;;;;;;22.27;13.90;;;2.50;99.90;;;;;;5041022;28;20441;-68
2024/01/13 07:25:55;;;;;;;19.90;13.57;;;2.50;99.90;;;;;;5043848;28;20439;-67
2024/01/13 07:28:21;;;;;;;19.37;12.30;;;2.50;99.90;;;;;;5045093;28;20198;-70
2024/01/13 07:30:47;;;;;;;21.17;13.63;;;2.50;99.90;;;;;;5045338;28;20435;-69
2024/01/13 07:33:13;;;;;;;20.70;12.57;;;2.50;99.90;;;;;;5043469;28;20278;-69
2024/01/13 07:35:39;;;;;;;19.97;12.67;;;2.50;99.90;;;;;;5041838;28;20487;-67
2024/01/13 07:38:04;;;;;;;24.77;14.70;;;2.50;99.90;;;;;;5039748;28;20476;-68
2024/01/13 07:40:30;;;;;;;24.13;16.17;;;2.50;99.90;;;;;;5039985;28;20218;-68
2024/01/13 07:42:55;;;;;;;26.03;15.33;;;2.50;99.90;;;;;;5039892;28;20217;-70
2024/01/13 07:45:21;;;;;;;25.57;16.43;;;2.50;99.90;;;;;;5042703;28;20225;-68
2024/01/13 07:47:47;;;;;;;22.33;16.03;;;2.50;99.90;;;;;;5040553;28;20202;-68
2024/01/13 07:50:12;;;;;;;30.73;17.03;;;2.50;99.90;;;;;;5039482;28;20198;-69
2024/01/13 07:52:38;;;;;;;22.60;15.67;;;2.50;99.90;;;;;;5039070;28;20214;-68
2024/01/13 07:55:04;;;;;;;22.40;15.37;;;2.50;99.90;;;;;;5038568;28;20189;-68
2024/01/13 07:57:30;;;;;;;20.60;14.40;;;2.60;99.90;;;;;;5039170;28;20217;-69
2024/01/13 07:59:56;;;;;;;19.70;13.30;;;2.60;99.90;;;;;;5039226;28;20425;-68
2024/01/13 08:02:21;;;;;;;21.23;14.07;;;2.60;99.90;;;;;;5038498;28;20459;-67
2024/01/13 08:04:47;;;;;;;23.50;14.10;;;2.60;99.90;;;;;;5040106;28;20424;-66
2024/01/13 08:07:12;;;;;;;18.57;13.83;;;2.60;99.90;;;;;;5039027;28;20183;-70
2024/01/13 08:09:38;;;;;;;19.27;13.70;;;2.60;99.90;;;;;;5039151;28;20252;-69
2024/01/13 08:12:05;;;;;;;21.23;14.57;;;2.60;99.90;;;;;;5039498;28;20452;-71
2024/01/13 08:14:30;;;;;;;28.10;18.40;;;2.60;99.90;;;;;;5039155;28;20190;-68
2024/01/13 08:16:56;;;;;;;31.13;21.33;;;2.60;99.90;;;;;;5039702;28;20476;-67
2024/01/13 08:19:22;;;;;;;30.07;19.03;;;2.60;99.90;;;;;;5038139;28;20186;-70
2024/01/13 08:21:50;;;;;;;23.23;15.63;;;2.70;99.90;;;;;;5041171;28;20217;-68
2024/01/13 08:24:15;;;;;;;25.37;17.57;;;2.70;99.90;;;;;;5043702;28;20495;-69
2024/01/13 08:26:42;;;;;;;23.87;16.73;;;2.70;99.90;;;;;;5046883;28;20460;-70
2024/01/13 08:29:08;;;;;;;25.80;17.73;;;2.70;99.90;;;;;;5047153;28;20197;-68
2024/01/13 08:31:34;;;;;;;27.40;17.90;;;2.80;99.90;;;;;;5045814;28;20429;-69
2024/01/13 08:34:00;;;;;;;27.03;17.17;;;2.80;99.90;;;;;;5044921;28;20467;-69
2024/01/13 08:36:25;;;;;;;29.30;17.80;;;2.80;99.90;;;;;;5045266;28;20492;-70
2024/01/13 08:38:51;;;;;;;26.17;17.93;;;2.80;99.90;;;;;;5044696;28;20194;-69
2024/01/13 08:41:17;;;;;;;27.30;17.30;;;2.80;99.90;;;;;;5045731;28;20599;-70
2024/01/13 08:43:42;;;;;;;21.50;15.07;;;2.80;99.90;;;;;;5041874;28;20186;-70
2024/01/13 08:46:11;;;;;;;27.40;16.33;;;2.80;99.90;;;;;;5038667;28;20605;-67
2024/01/13 08:48:37;;;;;;;22.87;16.17;;;2.90;99.90;;;;;;5040763;28;20198;-69
2024/01/13 08:51:04;;;;;;;24.50;16.90;;;2.80;99.90;;;;;;5041368;28;20424;-69
2024/01/13 08:53:29;;;;;;;26.40;17.50;;;2.90;99.90;;;;;;5040726;28;20949;-70
2024/01/13 08:55:55;;;;;;;30.37;18.90;;;2.90;99.90;;;;;;5039973;28;20479;-72
2024/01/13 08:58:20;;;;;;;23.00;16.00;;;3.00;99.90;;;;;;5040036;28;20514;-69
2024/01/13 09:00:46;;;;;;;22.80;16.70;;;3.00;99.90;;;;;;5040287;28;20540;-69
2024/01/13 09:03:12;;;;;;;25.47;18.10;;;3.00;99.90;;;;;;5037824;28;20228;-68
2024/01/13 09:05:37;;;;;;;22.67;16.07;;;3.10;99.90;;;;;;5038069;28;20205;-67
2024/01/13 09:08:03;;;;;;;23.33;17.40;;;3.10;99.90;;;;;;5041479;28;20198;-70
2024/01/13 09:10:29;;;;;;;28.20;17.80;;;3.20;99.90;;;;;;5045202;28;20193;-70
2024/01/13 09:12:55;;;;;;;22.00;15.60;;;3.20;99.90;;;;;;5042624;28;20299;-70
2024/01/13 09:15:21;;;;;;;19.83;14.90;;;3.20;99.90;;;;;;5037614;28;20838;-69
2024/01/13 09:17:46;;;;;;;19.83;15.00;;;3.30;99.90;;;;;;5036436;28;20516;-68
2024/01/13 09:20:12;;;;;;;22.07;15.47;;;3.30;99.90;;;;;;5038244;28;20217;-68
2024/01/13 09:22:39;;;;;;;21.17;13.83;;;3.30;99.90;;;;;;5038678;28;20218;-70
2024/01/13 09:25:05;;;;;;;22.57;15.70;;;3.30;99.90;;;;;;5038014;28;20522;-69
2024/01/13 09:27:30;;;;;;;20.80;14.73;;;3.30;99.90;;;;;;5039680;28;20433;-69
2024/01/13 09:29:57;;;;;;;20.70;13.80;;;3.40;99.90;;;;;;5038317;28;20182;-70
2024/01/13 09:32:23;;;;;;;17.33;12.57;;;3.40;99.90;;;;;;5039335;28;20681;-70
2024/01/13 09:34:50;;;;;;;20.20;14.30;;;3.40;99.90;;;;;;5039480;28;20417;-70
2024/01/13 09:37:15;;;;;;;17.90;14.03;;;3.40;99.90;;;;;;5054822;28;20194;-68
2024/01/13 09:39:41;;;;;;;20.83;13.20;;;3.40;99.90;;;;;;5038938;28;20853;-70
2024/01/13 09:42:07;;;;;;;17.77;12.90;;;3.40;99.90;;;;;;5038858;28;20224;-69
2024/01/13 09:44:33;;;;;;;19.23;14.17;;;3.30;99.90;;;;;;5037364;28;20198;-69
2024/01/13 09:47:00;;;;;;;18.30;12.60;;;3.40;99.90;;;;;;5038163;28;20443;-70
2024/01/13 09:49:30;;;;;;;18.00;13.83;;;3.40;99.90;;;;;;5038183;28;20213;-71
2024/01/13 09:51:57;;;;;;;17.37;12.10;;;3.40;99.90;;;;;;5039077;28;20421;-70
2024/01/13 09:54:24;;;;;;;15.40;11.33;;;3.40;99.90;;;;;;5039485;28;20437;-74
2024/01/13 09:56:50;;;;;;;14.83;10.67;;;3.30;99.90;;;;;;5039701;28;20425;-73
2024/01/13 09:59:20;;;;;;;13.63;11.00;;;3.40;99.90;;;;;;5038579;28;20406;-72
2024/01/13 10:01:45;;;;;;;16.93;11.70;;;3.40;99.90;;;;;;5038594;28;20421;-69
2024/01/13 10:04:12;;;;;;;18.83;13.40;;;3.50;99.90;;;;;;5038598;28;20425;-69
2024/01/13 10:06:38;;;;;;;15.50;11.40;;;3.50;99.90;;;;;;5039258;28;20510;-70
2024/01/13 10:09:04;;;;;;;13.43;10.20;;;3.50;99.90;;;;;;5039800;28;20398;-71
2024/01/13 10:11:30;;;;;;;15.80;11.43;;;3.50;99.90;;;;;;5038579;28;20504;-69
2024/01/13 10:14:03;;;;;;;16.20;10.37;;;3.50;99.90;;;;;;5038800;28;20499;-70
2024/01/13 10:16:31;;;;;;;15.97;10.77;;;3.50;99.90;;;;;;5039014;28;20211;-71
2024/01/13 10:19:01;;;;;;;13.77;9.67;;;3.50;99.90;;;;;;5044602;28;20417;-68
2024/01/13 10:21:27;;;;;;;13.77;10.83;;;3.50;99.90;;;;;;5040135;28;20416;-69
2024/01/13 10:23:57;;;;;;;18.23;10.27;;;3.60;99.90;;;;;;5039098;28;20857;-71
2024/01/13 10:26:28;;;;;;;16.00;10.10;;;3.60;99.90;;;;;;5040069;28;20209;-69
2024/01/13 10:28:58;;;;;;;15.67;9.80;;;3.60;99.90;;;;;;5045979;28;20679;-72
2024/01/13 10:31:24;;;;;;;12.83;8.97;;;3.60;99.90;;;;;;5046774;28;20448;-70
2024/01/13 10:33:51;;;;;;;11.47;9.03;;;3.60;99.90;;;;;;5047099;28;20444;-71
2024/01/13 10:36:22;;;;;;;10.73;7.57;;;3.60;99.90;;;;;;5059090;28;20534;-71
2024/01/13 10:38:49;;;;;;;12.80;9.90;;;3.60;99.90;;;;;;5045432;28;20423;-70
2024/01/13 10:41:16;;;;;;;10.50;8.27;;;3.70;99.90;;;;;;5042196;28;20444;-70
2024/01/13 10:43:45;;;;;;;14.83;10.10;;;3.70;99.90;;;;;;5042642;28;20417;-69
2024/01/13 10:46:13;;;;;;;12.50;8.73;;;3.80;99.90;;;;;;5042171;28;20448;-73
2024/01/13 10:48:46;;;;;;;12.47;10.23;;;3.80;99.90;;;;;;5043263;28;20424;-71
2024/01/13 10:51:25;;;;;;;14.90;9.87;;;3.90;99.90;;;;;;5043423;28;20460;-72
2024/01/13 10:53:54;;;;;;;12.33;9.43;;;3.90;99.90;;;;;;5042549;28;20453;-73
2024/01/13 10:56:20;;;;;;;12.87;9.07;;;3.80;99.90;;;;;;5059877;28;20932;-72
2024/01/13 10:58:47;;;;;;;17.20;12.00;;;3.80;99.90;;;;;;5042602;28;20417;-72
2024/01/13 11:01:13;;;;;;;12.80;9.17;;;3.80;99.90;;;;;;5041561;28;20425;-73
2024/01/13 11:03:41;;;;;;;10.57;8.43;;;3.80;99.90;;;;;;5044399;28;20440;-74
2024/01/13 11:06:06;;;;;;;13.37;9.80;;;3.90;99.90;;;;;;5043712;28;20460;-73
2024/01/13 11:08:34;;;;;;;16.23;10.50;;;3.90;99.90;;;;;;5042907;28;20421;-72
2024/01/13 11:11:01;;;;;;;13.60;9.10;;;3.80;99.90;;;;;;5041976;28;20283;-71
2024/01/13 11:13:34;;;;;;;13.50;9.00;;;3.80;99.90;;;;;;5042673;28;20460;-72
2024/01/13 11:16:16;;;;;;;13.30;10.37;;;3.90;99.90;;;;;;5043214;28;20433;-73
2024/01/13 11:18:46;;;;;;;12.40;9.13;;;3.80;99.90;;;;;;5043497;28;20413;-71
2024/01/13 11:21:12;;;;;;;10.60;8.30;;;3.70;99.90;;;;;;5043887;28;20421;-71
2024/01/13 11:23:51;;;;;;;11.10;8.73;;;3.70;99.90;;;;;;5059669;28;20444;-72
2024/01/13 11:26:19;;;;;;;11.20;8.70;;;3.70;99.90;;;;;;5044163;28;20434;-72
2024/01/13 11:28:52;;;;;;;11.13;7.80;;;3.70;99.90;;;;;;5044208;28;20441;-72
2024/01/13 11:31:41;;;;;;;13.13;10.00;;;3.70;99.90;;;;;;5043520;28;20520;-72
2024/01/13 11:34:12;;;;;;;13.77;9.53;;;3.70;99.90;;;;;;5025233;28;20560;-74
2024/01/13 11:36:44;;;;;;;14.80;9.27;;;3.60;99.90;;;;;;5058391;28;20464;-73
2024/01/13 11:39:11;;;;;;;13.87;9.73;;;3.60;99.90;;;;;;5043859;28;20714;-71
2024/01/13 11:41:44;;;;;;;13.93;8.97;;;3.60;99.90;;;;;;5027103;28;20460;-71
2024/01/13 11:44:10;;;;;;;11.07;8.83;;;3.60;99.90;;;;;;5042766;28;20411;-72
2024/01/13 11:46:38;;;;;;;15.00;10.23;;;3.60;99.90;;;;;;5041371;28;20441;-72
2024/01/13 11:49:04;;;;;;;17.17;11.70;;;3.60;99.90;;;;;;5042702;28;20417;-70
2024/01/13 11:51:59;;;;;;;15.30;9.67;;;3.60;99.90;;;;;;5043214;28;20445;-71
2024/01/13 11:54:28;;;;;;;12.83;9.50;;;3.60;99.90;;;;;;5041838;28;20461;-71
2024/01/13 11:56:57;;;;;;;17.40;9.97;;;3.50;99.90;;;;;;5026110;28;20445;-71
2024/01/13 11:59:23;;;;;;;11.67;8.53;;;3.50;99.90;;;;;;5045246;28;20450;-73
2024/01/13 12:01:49;;;;;;;12.33;9.00;;;3.50;99.90;;;;;;5044050;28;20405;-71
2024/01/13 12:04:16;;;;;;;16.23;10.40;;;3.50;99.90;;;;;;5044505;28;20607;-71
2024/01/13 12:06:43;;;;;;;13.70;10.17;;;3.50;99.90;;;;;;5043559;28;20433;-71
2024/01/13 12:09:11;;;;;;;10.90;8.80;;;3.50;99.90;;;;;;5045692;28;20424;-72
2024/01/13 12:11:37;;;;;;;11.20;8.67;;;3.40;99.90;;;;;;5044874;28;20520;-72
2024/01/13 12:14:04;;;;;;;16.17;10.77;;;3.40;99.90;;;;;;5046834;28;20437;-72
2024/01/13 12:16:31;;;;;;;16.57;11.63;;;3.40;99.90;;;;;;5044305;28;20502;-75
2024/01/13 12:18:57;;;;;;;13.43;9.73;;;3.30;99.90;;;;;;5059855;28;20426;-71
2024/01/13 12:21:22;;;;;;;13.70;9.20;;;3.30;99.90;;;;;;5058504;28;20413;-73
2024/01/13 12:23:48;;;;;;;13.10;9.37;;;3.30;99.90;;;;;;5044948;28;20186;-72
2024/01/13 12:26:14;;;;;;;10.17;8.63;;;3.30;99.90;;;;;;5043554;28;20304;-74
2024/01/13 12:28:40;;;;;;;13.53;9.13;;;3.30;99.90;;;;;;5043549;28;20273;-73
2024/01/13 12:31:06;;;;;;;10.43;8.20;;;3.30;99.90;;;;;;5044108;28;20209;-72
2024/01/13 12:33:32;;;;;;;11.90;9.00;;;3.30;99.90;;;;;;5029330;28;20781;-70
2024/01/13 12:36:02;;;;;;;17.73;11.00;;;3.30;99.90;;;;;;5043694;28;20951;-73